Common Venture — SVBL4 — position and weather

sailwx.info

Track history (hours):
 
Tides and Currents Weather Stations Pressure Air Temp Water Temp Dewpoint Dewpoint Depression Visibility Wind Speed Wind Dir Waves Ship Positions

Common Venture

Last reported at 2016-Sep-10 23:21 UTC. Time now 2016-Sep-26 05:27 UTC.
Position N 49°57' W 003°32'.
Warning: this ship's position is 15 days out of date.

Length 190 m; draft 6.8 m.

Type: Cargo ship. MMSI: 241155000.

Date/timePositionNaut miles runAvg speedWind from/ knotsBaromVisibWave heightAir tempDewpointWater temp
2016-Sep-10 23:21N 49°57' W 003°32'810.7
2016-Sep-10 22:33N 49°58' W 003°19'1110.9
2016-Sep-10 21:33N 49°58' W 003°02'11810.6
2016-Sep-10 10:25N 50°29' W 000°05'1311.5
2016-Sep-10 09:17N 50°32' E 000°15'5410.4
2016-Sep-10 04:07N 51°01' E 001°27'5 9.5
2016-Sep-10 03:33N 51°05' E 001°33'1010.4
2016-Sep-10 02:33N 51°12' E 001°44'1211.7
2016-Sep-10 01:33N 51°22' E 001°54'1212.3
2016-Sep-10 00:33N 51°32' E 002°06'1212.1
2016-Sep-09 23:33N 51°41' E 002°19'1211.6
2016-Sep-09 22:32N 51°50' E 002°31'1410.9
2016-Sep-09 21:17N 52°01' E 002°45'54 9.4
2016-Sep-09 15:31N 52°31' E 003°60'1111.4
2016-Sep-09 14:33N 52°31' E 004°18'1 1.2
2016-Sep-09 13:33N 52°31' E 004°20'0 0.0
2016-Sep-09 12:33N 52°31' E 004°20'0 0.1
2016-Sep-09 11:30N 52°31' E 004°19'0 0.0
2016-Sep-09 10:30N 52°31' E 004°20'0 0.0
2016-Sep-09 09:33N 52°31' E 004°19'0 0.0
2016-Sep-09 08:09N 52°31' E 004°19'0 0.0
2016-Sep-09 07:33N 52°31' E 004°19'0 0.0
2016-Sep-09 06:33N 52°31' E 004°19'0 0.0
2016-Sep-09 05:33N 52°31' E 004°20'3 3.0
2016-Sep-09 04:33N 52°30' E 004°24'2 2.3
2016-Sep-09 03:33N 52°29' E 004°28'2 2.5
2016-Sep-09 02:33N 52°28' E 004°31'3 3.4
2016-Sep-09 01:34N 52°28' E 004°37'6 5.5
2016-Sep-09 00:33N 52°26' E 004°45'4 4.5
2016-Sep-08 23:33N 52°24' E 004°52'0 0.1
2016-Sep-08 22:32N 52°24' E 004°52'0 0.0
2016-Sep-08 21:32N 52°24' E 004°52'0 0.0
2016-Sep-08 20:32N 52°24' E 004°52'0 0.0
2016-Sep-08 19:32N 52°24' E 004°52'0 0.0
2016-Sep-08 18:32N 52°24' E 004°52'0 0.0
2016-Sep-08 17:32N 52°24' E 004°52'0 0.0
2016-Sep-08 16:32N 52°24' E 004°52'0 0.0
2016-Sep-08 15:32N 52°24' E 004°52'0 0.0
2016-Sep-08 14:29N 52°24' E 004°52'0 0.0
2016-Sep-08 13:32N 52°24' E 004°52'0 0.0
2016-Sep-08 12:32N 52°24' E 004°52'0 0.0
2016-Sep-08 11:32N 52°24' E 004°52'0 0.0
2016-Sep-08 10:23N 52°24' E 004°52'0 0.0
2016-Sep-08 09:32N 52°24' E 004°52'0 0.0
2016-Sep-08 08:29N 52°24' E 004°52'0 0.0
2016-Sep-08 07:32N 52°24' E 004°52'0 0.0
2016-Sep-08 06:32N 52°24' E 004°52'0 0.0
2016-Sep-08 05:32N 52°24' E 004°52'0 0.0
2016-Sep-08 04:32N 52°24' E 004°52'0 0.0
2016-Sep-08 03:32N 52°24' E 004°52'0 0.0
2016-Sep-08 02:32N 52°24' E 004°52'0 0.0
2016-Sep-08 01:32N 52°24' E 004°52'0 0.0
2016-Sep-08 00:32N 52°24' E 004°52'0 0.0
2016-Sep-07 23:32N 52°24' E 004°52'0 0.0
2016-Sep-07 22:32N 52°24' E 004°52'0 0.0
2016-Sep-07 21:32N 52°24' E 004°52'0 0.0
2016-Sep-07 20:32N 52°24' E 004°52'0 0.0
2016-Sep-07 19:32N 52°24' E 004°52'0 0.0
2016-Sep-07 18:32N 52°24' E 004°52'0 0.0
2016-Sep-07 17:32N 52°24' E 004°52'0 0.0
2016-Sep-07 16:32N 52°24' E 004°52'0 0.0
2016-Sep-07 15:32N 52°24' E 004°52'0 0.0
2016-Sep-07 14:32N 52°24' E 004°52'0 0.0
2016-Sep-07 13:29N 52°24' E 004°52'0 0.0
2016-Sep-07 12:32N 52°24' E 004°52'0 0.0
2016-Sep-07 11:32N 52°24' E 004°52'0 0.0
2016-Sep-07 10:32N 52°24' E 004°52'0 0.0
2016-Sep-07 09:32N 52°24' E 004°52'0 0.0
2016-Sep-07 08:32N 52°24' E 004°52'0 0.0
2016-Sep-07 07:26N 52°24' E 004°52'0 0.0
2016-Sep-07 06:32N 52°24' E 004°52'0 0.0
2016-Sep-07 04:32N 52°24' E 004°52'0 0.0
2016-Sep-07 03:32N 52°24' E 004°52'0 0.0
2016-Sep-07 02:32N 52°24' E 004°52'0 0.0
2016-Sep-07 01:32N 52°24' E 004°52'0 0.0
2016-Sep-07 00:29N 52°24' E 004°52'0 0.0
2016-Sep-06 23:32N 52°24' E 004°52'0 0.0
2016-Sep-06 22:32N 52°24' E 004°52'0 0.0
2016-Sep-06 21:32N 52°24' E 004°52'0 0.0
2016-Sep-06 20:32N 52°24' E 004°52'0 0.0
2016-Sep-06 19:32N 52°24' E 004°52'0 0.0
2016-Sep-06 18:32N 52°24' E 004°52'0 0.0
2016-Sep-06 17:32N 52°24' E 004°52'0 0.0
2016-Sep-06 16:32N 52°24' E 004°52'0 0.0
2016-Sep-06 15:32N 52°24' E 004°52'0 0.0
2016-Sep-06 14:32N 52°24' E 004°52'0 0.0
2016-Sep-06 13:32N 52°24' E 004°52'0 0.0
2016-Sep-06 12:29N 52°24' E 004°52'0 0.0
2016-Sep-06 11:32N 52°24' E 004°52'0 0.0
2016-Sep-06 10:32N 52°24' E 004°52'0 0.0
2016-Sep-06 09:32N 52°24' E 004°52'0 0.0
2016-Sep-06 08:32N 52°24' E 004°52'0 0.0
2016-Sep-06 07:32N 52°24' E 004°52'0 0.0
2016-Sep-06 06:32N 52°24' E 004°52'0 0.0
2016-Sep-06 04:32N 52°24' E 004°52'0 0.0
2016-Sep-06 03:32N 52°24' E 004°52'0 0.0
2016-Sep-06 02:32N 52°24' E 004°52'0 0.0
2016-Sep-06 01:32N 52°24' E 004°52'0 0.0
2016-Sep-06 00:32N 52°24' E 004°52'0 0.0
2016-Sep-05 23:32N 52°24' E 004°52'0 0.0
2016-Sep-05 22:32N 52°24' E 004°52'0 0.0
2016-Sep-05 21:32N 52°24' E 004°52'0 0.0
2016-Sep-05 20:32N 52°24' E 004°52'0 0.0
2016-Sep-05 19:29N 52°24' E 004°52'0 0.0
2016-Sep-05 18:32N 52°24' E 004°52'0 0.0
2016-Sep-05 17:32N 52°24' E 004°52'0 0.0
2016-Sep-05 16:32N 52°24' E 004°52'0 0.0
2016-Sep-05 15:29N 52°24' E 004°52'0 0.0
2016-Sep-05 14:32N 52°24' E 004°52'0 0.0
2016-Sep-05 13:29N 52°24' E 004°52'0 0.0
2016-Sep-05 12:32N 52°24' E 004°52'0 0.0
2016-Sep-05 11:32N 52°24' E 004°52'0 0.0
2016-Sep-05 10:32N 52°24' E 004°52'0 0.0
2016-Sep-05 09:32N 52°24' E 004°52'0 0.0
2016-Sep-05 08:32N 52°24' E 004°52'0 0.0
2016-Sep-05 07:32N 52°24' E 004°52'0 0.0
2016-Sep-05 06:32N 52°24' E 004°52'0 0.0
2016-Sep-05 04:32N 52°24' E 004°52'0 0.0
2016-Sep-05 03:32N 52°24' E 004°52'0 0.0
2016-Sep-05 02:32N 52°24' E 004°52'0 0.0
2016-Sep-05 01:32N 52°24' E 004°52'0 0.0
2016-Sep-05 00:32N 52°24' E 004°52'0 0.0
2016-Sep-04 23:32N 52°24' E 004°52'0 0.0
2016-Sep-04 22:32N 52°24' E 004°52'0 0.0
2016-Sep-04 21:32N 52°24' E 004°52'0 0.0
2016-Sep-04 20:32N 52°24' E 004°52'0 0.0
2016-Sep-04 19:32N 52°24' E 004°52'0 0.0
2016-Sep-04 18:32N 52°24' E 004°52'0 0.0
2016-Sep-04 17:32N 52°24' E 004°52'0 0.0
2016-Sep-04 16:32N 52°24' E 004°52'0 0.0
2016-Sep-04 15:32N 52°24' E 004°52'0 0.0
2016-Sep-04 14:32N 52°24' E 004°52'0 0.0
2016-Sep-04 13:32N 52°24' E 004°52'0 0.0
2016-Sep-04 12:31N 52°24' E 004°52'0 0.0
2016-Sep-04 11:32N 52°24' E 004°52'0 0.0
2016-Sep-04 10:32N 52°24' E 004°52'0 0.0
2016-Sep-04 09:29N 52°24' E 004°52'0 0.0
2016-Sep-04 08:31N 52°24' E 004°52'0 0.0
2016-Sep-04 07:32N 52°24' E 004°52'0 0.0
2016-Sep-04 06:31N 52°24' E 004°52'0 0.0
2016-Sep-04 04:32N 52°24' E 004°52'0 0.0
2016-Sep-04 03:31N 52°24' E 004°52'0 0.0
2016-Sep-04 02:31N 52°24' E 004°52'0 0.0
2016-Sep-04 01:31N 52°24' E 004°52'0 0.0
2016-Sep-04 00:31N 52°24' E 004°52'0 0.0
2016-Sep-03 23:31N 52°24' E 004°52'0 0.0
2016-Sep-03 22:31N 52°24' E 004°52'0 0.0
2016-Sep-03 21:32N 52°24' E 004°52'0 0.0
2016-Sep-03 20:31N 52°24' E 004°52'0 0.0
2016-Sep-03 19:28N 52°24' E 004°52'0 0.0
2016-Sep-03 18:28N 52°24' E 004°52'0 0.0
2016-Sep-03 17:33N 52°24' E 004°52'0 0.0
2016-Sep-03 16:33N 52°24' E 004°52'0 0.0
2016-Sep-03 15:33N 52°24' E 004°52'0 0.0
2016-Sep-03 14:33N 52°24' E 004°52'0 0.0
2016-Sep-03 13:33N 52°24' E 004°52'0 0.0
2016-Sep-03 12:30N 52°24' E 004°52'0 0.0
2016-Sep-03 11:33N 52°24' E 004°52'0 0.0
2016-Sep-03 10:33N 52°24' E 004°52'0 0.0
2016-Sep-03 09:33N 52°24' E 004°52'0 0.0
2016-Sep-03 08:33N 52°24' E 004°52'0 0.0
2016-Sep-03 07:33N 52°24' E 004°52'0 0.0
2016-Sep-03 06:30N 52°24' E 004°52'0 0.0
2016-Sep-03 05:33N 52°24' E 004°52'0 0.0
2016-Sep-03 04:33N 52°24' E 004°52'0 0.0
2016-Sep-03 03:33N 52°24' E 004°52'0 0.0
2016-Sep-03 02:33N 52°24' E 004°52'0 0.0
2016-Sep-03 01:33N 52°24' E 004°52'0 0.0
2016-Sep-03 00:33N 52°24' E 004°52'0 0.0
2016-Sep-02 23:33N 52°24' E 004°52'0 0.0
2016-Sep-02 22:33N 52°24' E 004°52'0 0.0
2016-Sep-02 21:33N 52°24' E 004°52'0 0.0
2016-Sep-02 20:33N 52°24' E 004°52'0 0.0
2016-Sep-02 19:33N 52°24' E 004°52'0 0.0
2016-Sep-02 18:33N 52°24' E 004°52'0 0.0
2016-Sep-02 17:33N 52°24' E 004°52'0 0.0
2016-Sep-02 16:33N 52°24' E 004°52'0 0.0
2016-Sep-02 15:33N 52°24' E 004°52'0 0.0
2016-Sep-02 14:33N 52°24' E 004°52'0 0.0
2016-Sep-02 13:33N 52°24' E 004°52'0 0.0
2016-Sep-02 12:33N 52°24' E 004°52'0 0.0
2016-Sep-02 11:30N 52°24' E 004°52'0 0.0
2016-Sep-02 10:33N 52°24' E 004°52'0 0.0
2016-Sep-02 09:33N 52°24' E 004°52'0 0.0
2016-Sep-02 08:33N 52°24' E 004°52'0 0.0
2016-Sep-02 07:33N 52°24' E 004°52'0 0.0
2016-Sep-02 06:33N 52°24' E 004°52'0 0.0
2016-Sep-02 05:32N 52°24' E 004°52'0 0.0
2016-Sep-02 04:33N 52°24' E 004°52'0 0.0
2016-Sep-02 03:32N 52°24' E 004°52'0 0.0
2016-Sep-02 02:32N 52°24' E 004°52'0 0.0
2016-Sep-02 01:33N 52°24' E 004°52'0 0.0
2016-Sep-02 00:32N 52°24' E 004°52'0 0.0
2016-Sep-01 23:32N 52°24' E 004°52'0 0.0
2016-Sep-01 22:32N 52°24' E 004°52'0 0.0
2016-Sep-01 21:32N 52°24' E 004°52'0 0.0
2016-Sep-01 20:33N 52°24' E 004°52'0 0.0
2016-Sep-01 19:32N 52°24' E 004°52'0 0.0
2016-Sep-01 18:32N 52°24' E 004°52'0 0.0
2016-Sep-01 17:33N 52°24' E 004°52'0 0.0
2016-Sep-01 16:32N 52°24' E 004°52'0 0.0
2016-Sep-01 15:32N 52°24' E 004°52'0 0.0
2016-Sep-01 14:32N 52°24' E 004°52'0 0.0
2016-Sep-01 13:30N 52°24' E 004°52'0 0.0
2016-Sep-01 12:32N 52°24' E 004°52'1 1.4
2016-Sep-01 11:34N 52°25' E 004°50'7 7.3
2016-Sep-01 10:34N 52°28' E 004°39'2 1.6
2016-Sep-01 09:33N 52°28' E 004°36'8 8.2
2016-Sep-01 08:33N 52°29' E 004°23'6 6.2
2016-Sep-01 07:33N 52°29' E 004°13'8 8.5
2016-Sep-01 06:33N 52°27' E 003°59'7811.0
2016-Aug-31 23:28N 51°37' E 002°23'  
Track history (hours):
 
Tides and Currents Weather Stations Pressure Air Temp Water Temp Dewpoint Dewpoint Depression Visibility Wind Speed Wind Dir Waves Ship Positions

Common Venture

Last reported at 2016-Sep-10 23:21 UTC. Time now 2016-Sep-26 05:27 UTC.
Position N 49°57' W 003°32'.
Warning: this ship's position is 15 days out of date.

Length 190 m; draft 6.8 m.

Type: Cargo ship. MMSI: 241155000.

Date/timePositionNaut miles runAvg speedWind from/ knotsBaromVisibWave heightAir tempDewpointWater temp
2016-Sep-10 23:21N 49°57' W 003°32'810.7
2016-Sep-10 22:33N 49°58' W 003°19'1110.9
2016-Sep-10 21:33N 49°58' W 003°02'11810.6
2016-Sep-10 10:25N 50°29' W 000°05'1311.5
2016-Sep-10 09:17N 50°32' E 000°15'5410.4
2016-Sep-10 04:07N 51°01' E 001°27'5 9.5
2016-Sep-10 03:33N 51°05' E 001°33'1010.4
2016-Sep-10 02:33N 51°12' E 001°44'1211.7
2016-Sep-10 01:33N 51°22' E 001°54'1212.3
2016-Sep-10 00:33N 51°32' E 002°06'1212.1
2016-Sep-09 23:33N 51°41' E 002°19'1211.6
2016-Sep-09 22:32N 51°50' E 002°31'1410.9
2016-Sep-09 21:17N 52°01' E 002°45'54 9.4
2016-Sep-09 15:31N 52°31' E 003°60'1111.4
2016-Sep-09 14:33N 52°31' E 004°18'1 1.2
2016-Sep-09 13:33N 52°31' E 004°20'0 0.0
2016-Sep-09 12:33N 52°31' E 004°20'0 0.1
2016-Sep-09 11:30N 52°31' E 004°19'0 0.0
2016-Sep-09 10:30N 52°31' E 004°20'0 0.0
2016-Sep-09 09:33N 52°31' E 004°19'0 0.0
2016-Sep-09 08:09N 52°31' E 004°19'0 0.0
2016-Sep-09 07:33N 52°31' E 004°19'0 0.0
2016-Sep-09 06:33N 52°31' E 004°19'0 0.0
2016-Sep-09 05:33N 52°31' E 004°20'3 3.0
2016-Sep-09 04:33N 52°30' E 004°24'2 2.3
2016-Sep-09 03:33N 52°29' E 004°28'2 2.5
2016-Sep-09 02:33N 52°28' E 004°31'3 3.4
2016-Sep-09 01:34N 52°28' E 004°37'6 5.5
2016-Sep-09 00:33N 52°26' E 004°45'4 4.5
2016-Sep-08 23:33N 52°24' E 004°52'0 0.1
2016-Sep-08 22:32N 52°24' E 004°52'0 0.0
2016-Sep-08 21:32N 52°24' E 004°52'0 0.0
2016-Sep-08 20:32N 52°24' E 004°52'0 0.0
2016-Sep-08 19:32N 52°24' E 004°52'0 0.0
2016-Sep-08 18:32N 52°24' E 004°52'0 0.0
2016-Sep-08 17:32N 52°24' E 004°52'0 0.0
2016-Sep-08 16:32N 52°24' E 004°52'0 0.0
2016-Sep-08 15:32N 52°24' E 004°52'0 0.0
2016-Sep-08 14:29N 52°24' E 004°52'0 0.0
2016-Sep-08 13:32N 52°24' E 004°52'0 0.0
2016-Sep-08 12:32N 52°24' E 004°52'0 0.0
2016-Sep-08 11:32N 52°24' E 004°52'0 0.0
2016-Sep-08 10:23N 52°24' E 004°52'0 0.0
2016-Sep-08 09:32N 52°24' E 004°52'0 0.0
2016-Sep-08 08:29N 52°24' E 004°52'0 0.0
2016-Sep-08 07:32N 52°24' E 004°52'0 0.0
2016-Sep-08 06:32N 52°24' E 004°52'0 0.0
2016-Sep-08 05:32N 52°24' E 004°52'0 0.0
2016-Sep-08 04:32N 52°24' E 004°52'0 0.0
2016-Sep-08 03:32N 52°24' E 004°52'0 0.0
2016-Sep-08 02:32N 52°24' E 004°52'0 0.0
2016-Sep-08 01:32N 52°24' E 004°52'0 0.0
2016-Sep-08 00:32N 52°24' E 004°52'0 0.0
2016-Sep-07 23:32N 52°24' E 004°52'0 0.0
2016-Sep-07 22:32N 52°24' E 004°52'0 0.0
2016-Sep-07 21:32N 52°24' E 004°52'0 0.0
2016-Sep-07 20:32N 52°24' E 004°52'0 0.0
2016-Sep-07 19:32N 52°24' E 004°52'0 0.0
2016-Sep-07 18:32N 52°24' E 004°52'0 0.0
2016-Sep-07 17:32N 52°24' E 004°52'0 0.0
2016-Sep-07 16:32N 52°24' E 004°52'0 0.0
2016-Sep-07 15:32N 52°24' E 004°52'0 0.0
2016-Sep-07 14:32N 52°24' E 004°52'0 0.0
2016-Sep-07 13:29N 52°24' E 004°52'0 0.0
2016-Sep-07 12:32N 52°24' E 004°52'0 0.0
2016-Sep-07 11:32N 52°24' E 004°52'0 0.0
2016-Sep-07 10:32N 52°24' E 004°52'0 0.0
2016-Sep-07 09:32N 52°24' E 004°52'0 0.0
2016-Sep-07 08:32N 52°24' E 004°52'0 0.0
2016-Sep-07 07:26N 52°24' E 004°52'0 0.0
2016-Sep-07 06:32N 52°24' E 004°52'0 0.0
2016-Sep-07 04:32N 52°24' E 004°52'0 0.0
2016-Sep-07 03:32N 52°24' E 004°52'0 0.0
2016-Sep-07 02:32N 52°24' E 004°52'0 0.0
2016-Sep-07 01:32N 52°24' E 004°52'0 0.0
2016-Sep-07 00:29N 52°24' E 004°52'0 0.0
2016-Sep-06 23:32N 52°24' E 004°52'0 0.0
2016-Sep-06 22:32N 52°24' E 004°52'0 0.0
2016-Sep-06 21:32N 52°24' E 004°52'0 0.0
2016-Sep-06 20:32N 52°24' E 004°52'0 0.0
2016-Sep-06 19:32N 52°24' E 004°52'0 0.0
2016-Sep-06 18:32N 52°24' E 004°52'0 0.0
2016-Sep-06 17:32N 52°24' E 004°52'0 0.0
2016-Sep-06 16:32N 52°24' E 004°52'0 0.0
2016-Sep-06 15:32N 52°24' E 004°52'0 0.0
2016-Sep-06 14:32N 52°24' E 004°52'0 0.0
2016-Sep-06 13:32N 52°24' E 004°52'0 0.0
2016-Sep-06 12:29N 52°24' E 004°52'0 0.0
2016-Sep-06 11:32N 52°24' E 004°52'0 0.0
2016-Sep-06 10:32N 52°24' E 004°52'0 0.0
2016-Sep-06 09:32N 52°24' E 004°52'0 0.0
2016-Sep-06 08:32N 52°24' E 004°52'0 0.0
2016-Sep-06 07:32N 52°24' E 004°52'0 0.0
2016-Sep-06 06:32N 52°24' E 004°52'0 0.0
2016-Sep-06 04:32N 52°24' E 004°52'0 0.0
2016-Sep-06 03:32N 52°24' E 004°52'0 0.0
2016-Sep-06 02:32N 52°24' E 004°52'0 0.0
2016-Sep-06 01:32N 52°24' E 004°52'0 0.0
2016-Sep-06 00:32N 52°24' E 004°52'0 0.0
2016-Sep-05 23:32N 52°24' E 004°52'0 0.0
2016-Sep-05 22:32N 52°24' E 004°52'0 0.0
2016-Sep-05 21:32N 52°24' E 004°52'0 0.0
2016-Sep-05 20:32N 52°24' E 004°52'0 0.0
2016-Sep-05 19:29N 52°24' E 004°52'0 0.0
2016-Sep-05 18:32N 52°24' E 004°52'0 0.0
2016-Sep-05 17:32N 52°24' E 004°52'0 0.0
2016-Sep-05 16:32N 52°24' E 004°52'0 0.0
2016-Sep-05 15:29N 52°24' E 004°52'0 0.0
2016-Sep-05 14:32N 52°24' E 004°52'0 0.0
2016-Sep-05 13:29N 52°24' E 004°52'0 0.0
2016-Sep-05 12:32N 52°24' E 004°52'0 0.0
2016-Sep-05 11:32N 52°24' E 004°52'0 0.0
2016-Sep-05 10:32N 52°24' E 004°52'0 0.0
2016-Sep-05 09:32N 52°24' E 004°52'0 0.0
2016-Sep-05 08:32N 52°24' E 004°52'0 0.0
2016-Sep-05 07:32N 52°24' E 004°52'0 0.0
2016-Sep-05 06:32N 52°24' E 004°52'0 0.0
2016-Sep-05 04:32N 52°24' E 004°52'0 0.0
2016-Sep-05 03:32N 52°24' E 004°52'0 0.0
2016-Sep-05 02:32N 52°24' E 004°52'0 0.0
2016-Sep-05 01:32N 52°24' E 004°52'0 0.0
2016-Sep-05 00:32N 52°24' E 004°52'0 0.0
2016-Sep-04 23:32N 52°24' E 004°52'0 0.0
2016-Sep-04 22:32N 52°24' E 004°52'0 0.0
2016-Sep-04 21:32N 52°24' E 004°52'0 0.0
2016-Sep-04 20:32N 52°24' E 004°52'0 0.0
2016-Sep-04 19:32N 52°24' E 004°52'0 0.0
2016-Sep-04 18:32N 52°24' E 004°52'0 0.0
2016-Sep-04 17:32N 52°24' E 004°52'0 0.0
2016-Sep-04 16:32N 52°24' E 004°52'0 0.0
2016-Sep-04 15:32N 52°24' E 004°52'0 0.0
2016-Sep-04 14:32N 52°24' E 004°52'0 0.0
2016-Sep-04 13:32N 52°24' E 004°52'0 0.0
2016-Sep-04 12:31N 52°24' E 004°52'0 0.0
2016-Sep-04 11:32N 52°24' E 004°52'0 0.0
2016-Sep-04 10:32N 52°24' E 004°52'0 0.0
2016-Sep-04 09:29N 52°24' E 004°52'0 0.0
2016-Sep-04 08:31N 52°24' E 004°52'0 0.0
2016-Sep-04 07:32N 52°24' E 004°52'0 0.0
2016-Sep-04 06:31N 52°24' E 004°52'0 0.0
2016-Sep-04 04:32N 52°24' E 004°52'0 0.0
2016-Sep-04 03:31N 52°24' E 004°52'0 0.0
2016-Sep-04 02:31N 52°24' E 004°52'0 0.0
2016-Sep-04 01:31N 52°24' E 004°52'0 0.0
2016-Sep-04 00:31N 52°24' E 004°52'0 0.0
2016-Sep-03 23:31N 52°24' E 004°52'0 0.0
2016-Sep-03 22:31N 52°24' E 004°52'0 0.0
2016-Sep-03 21:32N 52°24' E 004°52'0 0.0
2016-Sep-03 20:31N 52°24' E 004°52'0 0.0
2016-Sep-03 19:28N 52°24' E 004°52'0 0.0
2016-Sep-03 18:28N 52°24' E 004°52'0 0.0
2016-Sep-03 17:33N 52°24' E 004°52'0 0.0
2016-Sep-03 16:33N 52°24' E 004°52'0 0.0
2016-Sep-03 15:33N 52°24' E 004°52'0 0.0
2016-Sep-03 14:33N 52°24' E 004°52'0 0.0
2016-Sep-03 13:33N 52°24' E 004°52'0 0.0
2016-Sep-03 12:30N 52°24' E 004°52'0 0.0
2016-Sep-03 11:33N 52°24' E 004°52'0 0.0
2016-Sep-03 10:33N 52°24' E 004°52'0 0.0
2016-Sep-03 09:33N 52°24' E 004°52'0 0.0
2016-Sep-03 08:33N 52°24' E 004°52'0 0.0
2016-Sep-03 07:33N 52°24' E 004°52'0 0.0
2016-Sep-03 06:30N 52°24' E 004°52'0 0.0
2016-Sep-03 05:33N 52°24' E 004°52'0 0.0
2016-Sep-03 04:33N 52°24' E 004°52'0 0.0
2016-Sep-03 03:33N 52°24' E 004°52'0 0.0
2016-Sep-03 02:33N 52°24' E 004°52'0 0.0
2016-Sep-03 01:33N 52°24' E 004°52'0 0.0
2016-Sep-03 00:33N 52°24' E 004°52'0 0.0
2016-Sep-02 23:33N 52°24' E 004°52'0 0.0
2016-Sep-02 22:33N 52°24' E 004°52'0 0.0
2016-Sep-02 21:33N 52°24' E 004°52'0 0.0
2016-Sep-02 20:33N 52°24' E 004°52'0 0.0
2016-Sep-02 19:33N 52°24' E 004°52'0 0.0
2016-Sep-02 18:33N 52°24' E 004°52'0 0.0
2016-Sep-02 17:33N 52°24' E 004°52'0 0.0
2016-Sep-02 16:33N 52°24' E 004°52'0 0.0
2016-Sep-02 15:33N 52°24' E 004°52'0 0.0
2016-Sep-02 14:33N 52°24' E 004°52'0 0.0
2016-Sep-02 13:33N 52°24' E 004°52'0 0.0
2016-Sep-02 12:33N 52°24' E 004°52'0 0.0
2016-Sep-02 11:30N 52°24' E 004°52'0 0.0
2016-Sep-02 10:33N 52°24' E 004°52'0 0.0
2016-Sep-02 09:33N 52°24' E 004°52'0 0.0
2016-Sep-02 08:33N 52°24' E 004°52'0 0.0
2016-Sep-02 07:33N 52°24' E 004°52'0 0.0
2016-Sep-02 06:33N 52°24' E 004°52'0 0.0
2016-Sep-02 05:32N 52°24' E 004°52'0 0.0
2016-Sep-02 04:33N 52°24' E 004°52'0 0.0
2016-Sep-02 03:32N 52°24' E 004°52'0 0.0
2016-Sep-02 02:32N 52°24' E 004°52'0 0.0
2016-Sep-02 01:33N 52°24' E 004°52'0 0.0
2016-Sep-02 00:32N 52°24' E 004°52'0 0.0
2016-Sep-01 23:32N 52°24' E 004°52'0 0.0
2016-Sep-01 22:32N 52°24' E 004°52'0 0.0
2016-Sep-01 21:32N 52°24' E 004°52'0 0.0
2016-Sep-01 20:33N 52°24' E 004°52'0 0.0
2016-Sep-01 19:32N 52°24' E 004°52'0 0.0
2016-Sep-01 18:32N 52°24' E 004°52'0 0.0
2016-Sep-01 17:33N 52°24' E 004°52'0 0.0
2016-Sep-01 16:32N 52°24' E 004°52'0 0.0
2016-Sep-01 15:32N 52°24' E 004°52'0 0.0
2016-Sep-01 14:32N 52°24' E 004°52'0 0.0
2016-Sep-01 13:30N 52°24' E 004°52'0 0.0
2016-Sep-01 12:32N 52°24' E 004°52'1 1.4
2016-Sep-01 11:34N 52°25' E 004°50'7 7.3
2016-Sep-01 10:34N 52°28' E 004°39'2 1.6
2016-Sep-01 09:33N 52°28' E 004°36'8 8.2
2016-Sep-01 08:33N 52°29' E 004°23'6 6.2
2016-Sep-01 07:33N 52°29' E 004°13'8 8.5
2016-Sep-01 06:33N 52°27' E 003°59'7811.0
2016-Aug-31 23:28N 51°37' E 002°23'  

Dump ship's entire track history